sensor_id;sensor_type;location;lat;lon;timestamp;P1;durP1;ratioP1;P2;durP2;ratioP2
3193;SDS011;1608;50.860;13.466;2022-07-17T00:01:27;6.90;;;4.67;;
3193;SDS011;1608;50.860;13.466;2022-07-17T00:03:54;6.10;;;4.73;;
3193;SDS011;1608;50.860;13.466;2022-07-17T00:06:22;5.83;;;3.87;;
3193;SDS011;1608;50.860;13.466;2022-07-17T00:08:49;9.13;;;4.53;;
3193;SDS011;1608;50.860;13.466;2022-07-17T00:11:16;5.20;;;4.20;;
3193;SDS011;1608;50.860;13.466;2022-07-17T00:13:43;4.67;;;3.93;;
3193;SDS011;1608;50.860;13.466;2022-07-17T00:16:09;4.27;;;3.60;;
3193;SDS011;1608;50.860;13.466;2022-07-17T00:18:36;7.17;;;5.50;;
3193;SDS011;1608;50.860;13.466;2022-07-17T00:21:03;3.67;;;3.37;;
3193;SDS011;1608;50.860;13.466;2022-07-17T00:23:31;4.00;;;3.40;;
3193;SDS011;1608;50.860;13.466;2022-07-17T00:25:58;6.00;;;4.10;;
3193;SDS011;1608;50.860;13.466;2022-07-17T00:28:25;8.63;;;4.03;;
3193;SDS011;1608;50.860;13.466;2022-07-17T00:30:52;5.80;;;4.00;;
3193;SDS011;1608;50.860;13.466;2022-07-17T00:33:19;3.63;;;3.30;;
3193;SDS011;1608;50.860;13.466;2022-07-17T00:35:45;6.90;;;4.27;;
3193;SDS011;1608;50.860;13.466;2022-07-17T00:38:12;6.00;;;4.07;;
3193;SDS011;1608;50.860;13.466;2022-07-17T00:40:41;5.20;;;4.20;;
3193;SDS011;1608;50.860;13.466;2022-07-17T00:43:08;4.90;;;3.40;;
3193;SDS011;1608;50.860;13.466;2022-07-17T00:45:35;3.57;;;3.27;;
3193;SDS011;1608;50.860;13.466;2022-07-17T00:48:02;4.10;;;3.50;;
3193;SDS011;1608;50.860;13.466;2022-07-17T00:50:31;5.33;;;3.20;;
3193;SDS011;1608;50.860;13.466;2022-07-17T00:52:59;5.77;;;4.50;;
3193;SDS011;1608;50.860;13.466;2022-07-17T00:55:26;4.77;;;3.20;;
3193;SDS011;1608;50.860;13.466;2022-07-17T00:57:55;4.17;;;3.47;;
3193;SDS011;1608;50.860;13.466;2022-07-17T01:00:22;4.90;;;3.43;;
3193;SDS011;1608;50.860;13.466;2022-07-17T01:02:50;6.30;;;5.13;;
3193;SDS011;1608;50.860;13.466;2022-07-17T01:05:18;4.97;;;3.60;;
3193;SDS011;1608;50.860;13.466;2022-07-17T01:07:46;4.77;;;3.70;;
3193;SDS011;1608;50.860;13.466;2022-07-17T01:10:14;3.60;;;3.10;;
3193;SDS011;1608;50.860;13.466;2022-07-17T01:12:42;5.93;;;3.40;;
3193;SDS011;1608;50.860;13.466;2022-07-17T01:15:11;9.47;;;3.40;;
3193;SDS011;1608;50.860;13.466;2022-07-17T01:17:38;5.20;;;3.03;;
3193;SDS011;1608;50.860;13.466;2022-07-17T01:20:06;4.60;;;3.47;;
3193;SDS011;1608;50.860;13.466;2022-07-17T01:22:40;3.27;;;2.97;;
3193;SDS011;1608;50.860;13.466;2022-07-17T01:25:08;6.10;;;3.27;;
3193;SDS011;1608;50.860;13.466;2022-07-17T01:27:35;3.00;;;2.70;;
3193;SDS011;1608;50.860;13.466;2022-07-17T01:30:02;4.70;;;3.03;;
3193;SDS011;1608;50.860;13.466;2022-07-17T01:32:30;5.20;;;3.50;;
3193;SDS011;1608;50.860;13.466;2022-07-17T01:34:58;5.90;;;3.90;;
3193;SDS011;1608;50.860;13.466;2022-07-17T01:37:24;8.87;;;3.27;;
3193;SDS011;1608;50.860;13.466;2022-07-17T01:39:52;5.57;;;3.77;;
3193;SDS011;1608;50.860;13.466;2022-07-17T01:42:19;4.30;;;2.53;;
3193;SDS011;1608;50.860;13.466;2022-07-17T01:44:46;3.30;;;2.77;;
3193;SDS011;1608;50.860;13.466;2022-07-17T01:47:13;6.50;;;2.33;;
3193;SDS011;1608;50.860;13.466;2022-07-17T01:49:42;7.20;;;3.60;;
3193;SDS011;1608;50.860;13.466;2022-07-17T01:52:11;4.13;;;3.20;;
3193;SDS011;1608;50.860;13.466;2022-07-17T01:54:37;3.20;;;2.90;;
3193;SDS011;1608;50.860;13.466;2022-07-17T01:57:06;3.63;;;2.70;;
3193;SDS011;1608;50.860;13.466;2022-07-17T01:59:33;4.77;;;3.20;;
3193;SDS011;1608;50.860;13.466;2022-07-17T02:02:00;3.60;;;2.40;;
3193;SDS011;1608;50.860;13.466;2022-07-17T02:04:27;5.87;;;3.40;;
3193;SDS011;1608;50.860;13.466;2022-07-17T02:06:54;3.70;;;3.00;;
3193;SDS011;1608;50.860;13.466;2022-07-17T02:09:21;9.60;;;4.00;;
3193;SDS011;1608;50.860;13.466;2022-07-17T02:11:48;5.07;;;3.40;;
3193;SDS011;1608;50.860;13.466;2022-07-17T02:14:17;5.20;;;3.37;;
3193;SDS011;1608;50.860;13.466;2022-07-17T02:16:44;4.60;;;2.63;;
3193;SDS011;1608;50.860;13.466;2022-07-17T02:19:11;5.70;;;2.83;;
3193;SDS011;1608;50.860;13.466;2022-07-17T02:21:38;4.83;;;3.00;;
3193;SDS011;1608;50.860;13.466;2022-07-17T02:24:05;4.20;;;2.47;;
3193;SDS011;1608;50.860;13.466;2022-07-17T02:26:32;3.60;;;2.83;;
3193;SDS011;1608;50.860;13.466;2022-07-17T02:28:59;6.50;;;2.47;;
3193;SDS011;1608;50.860;13.466;2022-07-17T02:31:27;3.83;;;2.40;;
3193;SDS011;1608;50.860;13.466;2022-07-17T02:33:54;2.40;;;2.20;;
3193;SDS011;1608;50.860;13.466;2022-07-17T02:36:21;3.37;;;3.00;;
3193;SDS011;1608;50.860;13.466;2022-07-17T02:38:48;3.37;;;2.10;;
3193;SDS011;1608;50.860;13.466;2022-07-17T02:41:14;3.57;;;2.80;;
3193;SDS011;1608;50.860;13.466;2022-07-17T02:43:42;7.03;;;2.80;;
3193;SDS011;1608;50.860;13.466;2022-07-17T02:46:08;4.10;;;3.30;;
3193;SDS011;1608;50.860;13.466;2022-07-17T02:48:37;4.77;;;2.70;;
3193;SDS011;1608;50.860;13.466;2022-07-17T02:51:03;3.27;;;2.50;;
3193;SDS011;1608;50.860;13.466;2022-07-17T02:53:31;6.00;;;3.07;;
3193;SDS011;1608;50.860;13.466;2022-07-17T02:55:58;2.90;;;2.50;;
3193;SDS011;1608;50.860;13.466;2022-07-17T02:58:25;4.53;;;2.87;;
3193;SDS011;1608;50.860;13.466;2022-07-17T03:00:52;3.60;;;2.77;;
3193;SDS011;1608;50.860;13.466;2022-07-17T03:03:18;4.90;;;2.70;;
3193;SDS011;1608;50.860;13.466;2022-07-17T03:05:47;4.20;;;2.40;;
3193;SDS011;1608;50.860;13.466;2022-07-17T03:08:14;4.00;;;2.73;;
3193;SDS011;1608;50.860;13.466;2022-07-17T03:10:41;4.60;;;2.77;;
3193;SDS011;1608;50.860;13.466;2022-07-17T03:13:07;5.50;;;2.93;;
3193;SDS011;1608;50.860;13.466;2022-07-17T03:15:34;3.37;;;2.67;;
3193;SDS011;1608;50.860;13.466;2022-07-17T03:18:01;6.20;;;2.43;;
3193;SDS011;1608;50.860;13.466;2022-07-17T03:20:28;3.27;;;2.97;;
3193;SDS011;1608;50.860;13.466;2022-07-17T03:22:56;4.23;;;2.80;;
3193;SDS011;1608;50.860;13.466;2022-07-17T03:25:23;4.67;;;2.73;;
3193;SDS011;1608;50.860;13.466;2022-07-17T03:27:50;2.57;;;2.37;;
3193;SDS011;1608;50.860;13.466;2022-07-17T03:30:17;3.80;;;3.23;;
3193;SDS011;1608;50.860;13.466;2022-07-17T03:32:43;2.63;;;2.40;;
3193;SDS011;1608;50.860;13.466;2022-07-17T03:35:10;3.67;;;2.20;;
3193;SDS011;1608;50.860;13.466;2022-07-17T03:37:37;8.30;;;3.10;;
3193;SDS011;1608;50.860;13.466;2022-07-17T03:40:06;2.63;;;1.80;;
3193;SDS011;1608;50.860;13.466;2022-07-17T03:42:34;5.20;;;2.33;;
3193;SDS011;1608;50.860;13.466;2022-07-17T03:45:01;4.00;;;2.20;;
3193;SDS011;1608;50.860;13.466;2022-07-17T03:47:28;1.90;;;1.70;;
3193;SDS011;1608;50.860;13.466;2022-07-17T03:49:55;4.40;;;2.30;;
3193;SDS011;1608;50.860;13.466;2022-07-17T03:52:22;4.20;;;2.80;;
3193;SDS011;1608;50.860;13.466;2022-07-17T03:54:48;2.40;;;1.87;;
3193;SDS011;1608;50.860;13.466;2022-07-17T03:57:16;3.40;;;1.80;;
3193;SDS011;1608;50.860;13.466;2022-07-17T03:59:43;2.50;;;2.03;;
3193;SDS011;1608;50.860;13.466;2022-07-17T04:02:10;3.13;;;2.30;;
3193;SDS011;1608;50.860;13.466;2022-07-17T04:04:37;3.47;;;3.17;;
3193;SDS011;1608;50.860;13.466;2022-07-17T04:07:03;5.47;;;2.30;;
3193;SDS011;1608;50.860;13.466;2022-07-17T04:09:30;9.00;;;2.73;;
3193;SDS011;1608;50.860;13.466;2022-07-17T04:11:57;3.20;;;2.00;;
3193;SDS011;1608;50.860;13.466;2022-07-17T04:14:25;4.87;;;1.90;;
3193;SDS011;1608;50.860;13.466;2022-07-17T04:16:52;3.07;;;2.13;;
3193;SDS011;1608;50.860;13.466;2022-07-17T04:19:19;1.80;;;1.70;;
3193;SDS011;1608;50.860;13.466;2022-07-17T04:21:45;3.97;;;2.13;;
3193;SDS011;1608;50.860;13.466;2022-07-17T04:24:12;1.63;;;1.53;;
3193;SDS011;1608;50.860;13.466;2022-07-17T04:26:39;5.70;;;2.00;;
3193;SDS011;1608;50.860;13.466;2022-07-17T04:29:06;2.50;;;2.00;;
3193;SDS011;1608;50.860;13.466;2022-07-17T04:31:34;2.23;;;1.93;;
3193;SDS011;1608;50.860;13.466;2022-07-17T04:34:01;3.77;;;1.90;;
3193;SDS011;1608;50.860;13.466;2022-07-17T04:36:28;3.60;;;2.40;;
3193;SDS011;1608;50.860;13.466;2022-07-17T04:38:55;3.10;;;2.03;;
3193;SDS011;1608;50.860;13.466;2022-07-17T04:41:21;2.03;;;1.77;;
3193;SDS011;1608;50.860;13.466;2022-07-17T04:43:48;2.57;;;1.87;;
3193;SDS011;1608;50.860;13.466;2022-07-17T04:46:15;3.50;;;2.53;;
3193;SDS011;1608;50.860;13.466;2022-07-17T04:48:43;1.87;;;1.57;;
3193;SDS011;1608;50.860;13.466;2022-07-17T04:51:10;4.30;;;2.13;;
3193;SDS011;1608;50.860;13.466;2022-07-17T04:53:37;2.63;;;1.90;;
3193;SDS011;1608;50.860;13.466;2022-07-17T04:56:04;1.70;;;1.57;;
3193;SDS011;1608;50.860;13.466;2022-07-17T04:58:31;2.93;;;2.40;;
3193;SDS011;1608;50.860;13.466;2022-07-17T05:00:58;2.40;;;1.60;;
3193;SDS011;1608;50.860;13.466;2022-07-17T05:03:24;2.67;;;1.83;;
3193;SDS011;1608;50.860;13.466;2022-07-17T05:05:52;7.83;;;1.90;;
3193;SDS011;1608;50.860;13.466;2022-07-17T05:08:19;3.00;;;1.87;;
3193;SDS011;1608;50.860;13.466;2022-07-17T05:10:46;2.83;;;1.73;;
3193;SDS011;1608;50.860;13.466;2022-07-17T05:13:13;2.03;;;1.53;;
3193;SDS011;1608;50.860;13.466;2022-07-17T05:15:40;2.20;;;1.87;;
3193;SDS011;1608;50.860;13.466;2022-07-17T05:18:07;5.40;;;2.23;;
3193;SDS011;1608;50.860;13.466;2022-07-17T05:20:34;3.17;;;2.13;;
3193;SDS011;1608;50.860;13.466;2022-07-17T05:23:02;5.20;;;2.27;;
3193;SDS011;1608;50.860;13.466;2022-07-17T05:25:29;3.20;;;1.90;;
3193;SDS011;1608;50.860;13.466;2022-07-17T05:27:56;1.90;;;1.70;;
3193;SDS011;1608;50.860;13.466;2022-07-17T05:30:22;2.37;;;1.90;;
3193;SDS011;1608;50.860;13.466;2022-07-17T05:32:49;3.70;;;2.37;;
3193;SDS011;1608;50.860;13.466;2022-07-17T05:35:16;2.30;;;2.10;;
3193;SDS011;1608;50.860;13.466;2022-07-17T05:37:43;3.10;;;2.20;;
3193;SDS011;1608;50.860;13.466;2022-07-17T05:40:11;3.83;;;1.80;;
3193;SDS011;1608;50.860;13.466;2022-07-17T05:42:38;5.63;;;2.37;;
3193;SDS011;1608;50.860;13.466;2022-07-17T05:45:05;5.23;;;2.70;;
3193;SDS011;1608;50.860;13.466;2022-07-17T05:47:33;2.30;;;1.83;;
3193;SDS011;1608;50.860;13.466;2022-07-17T05:49:59;3.13;;;2.50;;
3193;SDS011;1608;50.860;13.466;2022-07-17T05:52:26;3.07;;;1.80;;
3193;SDS011;1608;50.860;13.466;2022-07-17T05:54:53;3.07;;;2.00;;
3193;SDS011;1608;50.860;13.466;2022-07-17T05:57:21;3.80;;;1.90;;
3193;SDS011;1608;50.860;13.466;2022-07-17T05:59:48;5.63;;;2.50;;
3193;SDS011;1608;50.860;13.466;2022-07-17T06:02:15;3.70;;;1.80;;
3193;SDS011;1608;50.860;13.466;2022-07-17T06:04:41;3.20;;;2.17;;
3193;SDS011;1608;50.860;13.466;2022-07-17T06:07:08;2.07;;;1.50;;
3193;SDS011;1608;50.860;13.466;2022-07-17T06:09:35;8.03;;;2.73;;
3193;SDS011;1608;50.860;13.466;2022-07-17T06:12:02;4.20;;;1.73;;
3193;SDS011;1608;50.860;13.466;2022-07-17T06:14:30;8.00;;;2.03;;
3193;SDS011;1608;50.860;13.466;2022-07-17T06:16:57;6.40;;;2.20;;
3193;SDS011;1608;50.860;13.466;2022-07-17T06:19:24;2.50;;;1.40;;
3193;SDS011;1608;50.860;13.466;2022-07-17T06:21:51;6.77;;;1.73;;
3193;SDS011;1608;50.860;13.466;2022-07-17T06:24:17;3.80;;;1.90;;
3193;SDS011;1608;50.860;13.466;2022-07-17T06:26:44;2.80;;;2.00;;
3193;SDS011;1608;50.860;13.466;2022-07-17T06:29:11;2.80;;;1.90;;
3193;SDS011;1608;50.860;13.466;2022-07-17T06:31:39;5.07;;;2.10;;
3193;SDS011;1608;50.860;13.466;2022-07-17T06:34:06;5.03;;;2.10;;
3193;SDS011;1608;50.860;13.466;2022-07-17T06:36:32;3.30;;;1.63;;
3193;SDS011;1608;50.860;13.466;2022-07-17T06:38:59;2.57;;;1.60;;
3193;SDS011;1608;50.860;13.466;2022-07-17T06:41:26;5.03;;;1.70;;
3193;SDS011;1608;50.860;13.466;2022-07-17T06:43:53;2.80;;;2.13;;
3193;SDS011;1608;50.860;13.466;2022-07-17T06:46:20;5.20;;;2.53;;
3193;SDS011;1608;50.860;13.466;2022-07-17T06:48:48;3.13;;;1.70;;
3193;SDS011;1608;50.860;13.466;2022-07-17T06:51:16;2.77;;;1.40;;
3193;SDS011;1608;50.860;13.466;2022-07-17T06:53:43;2.67;;;1.77;;
3193;SDS011;1608;50.860;13.466;2022-07-17T06:56:10;3.63;;;1.60;;
3193;SDS011;1608;50.860;13.466;2022-07-17T06:58:37;2.80;;;2.17;;
3193;SDS011;1608;50.860;13.466;2022-07-17T07:01:03;3.37;;;1.37;;
3193;SDS011;1608;50.860;13.466;2022-07-17T07:03:30;2.90;;;1.50;;
3193;SDS011;1608;50.860;13.466;2022-07-17T07:05:58;2.33;;;1.83;;
3193;SDS011;1608;50.860;13.466;2022-07-17T07:08:25;4.13;;;1.83;;
3193;SDS011;1608;50.860;13.466;2022-07-17T07:10:52;5.18;;;1.65;;
3193;SDS011;1608;50.860;13.466;2022-07-17T07:13:19;3.00;;;1.60;;
3193;SDS011;1608;50.860;13.466;2022-07-17T07:15:45;4.73;;;2.20;;
3193;SDS011;1608;50.860;13.466;2022-07-17T07:18:12;4.43;;;2.27;;
3193;SDS011;1608;50.860;13.466;2022-07-17T07:20:39;3.20;;;1.70;;
3193;SDS011;1608;50.860;13.466;2022-07-17T07:23:07;4.17;;;1.73;;
3193;SDS011;1608;50.860;13.466;2022-07-17T07:25:35;2.87;;;1.40;;
3193;SDS011;1608;50.860;13.466;2022-07-17T07:28:02;8.10;;;2.23;;
3193;SDS011;1608;50.860;13.466;2022-07-17T07:30:29;4.30;;;1.80;;
3193;SDS011;1608;50.860;13.466;2022-07-17T07:32:56;4.20;;;1.80;;
3193;SDS011;1608;50.860;13.466;2022-07-17T07:35:23;5.60;;;1.80;;
3193;SDS011;1608;50.860;13.466;2022-07-17T07:37:50;2.63;;;1.30;;
3193;SDS011;1608;50.860;13.466;2022-07-17T07:40:18;6.13;;;2.43;;
3193;SDS011;1608;50.860;13.466;2022-07-17T07:42:45;4.53;;;1.43;;
3193;SDS011;1608;50.860;13.466;2022-07-17T07:45:12;3.93;;;2.13;;
3193;SDS011;1608;50.860;13.466;2022-07-17T07:47:42;3.87;;;2.40;;
3193;SDS011;1608;50.860;13.466;2022-07-17T07:50:10;2.60;;;1.67;;
3193;SDS011;1608;50.860;13.466;2022-07-17T07:52:38;3.00;;;1.87;;
3193;SDS011;1608;50.860;13.466;2022-07-17T07:55:06;2.00;;;1.50;;
3193;SDS011;1608;50.860;13.466;2022-07-17T07:57:35;3.80;;;1.97;;
3193;SDS011;1608;50.860;13.466;2022-07-17T08:00:03;3.37;;;2.13;;
3193;SDS011;1608;50.860;13.466;2022-07-17T08:02:30;2.93;;;2.13;;
3193;SDS011;1608;50.860;13.466;2022-07-17T08:04:57;5.07;;;2.00;;
3193;SDS011;1608;50.860;13.466;2022-07-17T08:07:25;4.57;;;1.67;;
3193;SDS011;1608;50.860;13.466;2022-07-17T08:09:52;3.97;;;2.20;;
3193;SDS011;1608;50.860;13.466;2022-07-17T08:12:19;2.30;;;1.40;;
3193;SDS011;1608;50.860;13.466;2022-07-17T08:14:49;3.93;;;1.70;;
3193;SDS011;1608;50.860;13.466;2022-07-17T08:17:16;9.47;;;2.43;;
3193;SDS011;1608;50.860;13.466;2022-07-17T08:19:44;2.27;;;1.80;;
3193;SDS011;1608;50.860;13.466;2022-07-17T08:22:11;5.30;;;1.93;;
3193;SDS011;1608;50.860;13.466;2022-07-17T08:24:38;3.23;;;2.27;;
3193;SDS011;1608;50.860;13.466;2022-07-17T08:27:05;2.13;;;2.03;;
3193;SDS011;1608;50.860;13.466;2022-07-17T08:29:32;4.60;;;2.00;;
3193;SDS011;1608;50.860;13.466;2022-07-17T08:32:00;2.90;;;1.67;;
3193;SDS011;1608;50.860;13.466;2022-07-17T08:34:27;3.67;;;1.93;;
3193;SDS011;1608;50.860;13.466;2022-07-17T08:36:53;3.73;;;1.60;;
3193;SDS011;1608;50.860;13.466;2022-07-17T08:39:20;7.83;;;2.10;;
3193;SDS011;1608;50.860;13.466;2022-07-17T08:41:47;5.97;;;1.70;;
3193;SDS011;1608;50.860;13.466;2022-07-17T08:44:14;3.73;;;1.67;;
3193;SDS011;1608;50.860;13.466;2022-07-17T08:46:41;2.57;;;1.40;;
3193;SDS011;1608;50.860;13.466;2022-07-17T08:49:09;4.90;;;1.80;;
3193;SDS011;1608;50.860;13.466;2022-07-17T08:51:37;2.97;;;1.67;;
3193;SDS011;1608;50.860;13.466;2022-07-17T08:54:04;2.27;;;1.83;;
3193;SDS011;1608;50.860;13.466;2022-07-17T08:56:31;3.60;;;2.27;;
3193;SDS011;1608;50.860;13.466;2022-07-17T08:58:57;2.50;;;1.50;;
3193;SDS011;1608;50.860;13.466;2022-07-17T09:01:24;3.07;;;1.67;;
3193;SDS011;1608;50.860;13.466;2022-07-17T09:03:55;3.63;;;2.03;;
3193;SDS011;1608;50.860;13.466;2022-07-17T09:06:24;3.43;;;1.80;;
3193;SDS011;1608;50.860;13.466;2022-07-17T09:09:02;3.13;;;1.50;;
3193;SDS011;1608;50.860;13.466;2022-07-17T09:11:40;3.43;;;1.80;;
3193;SDS011;1608;50.860;13.466;2022-07-17T09:14:08;7.33;;;1.83;;
3193;SDS011;1608;50.860;13.466;2022-07-17T09:16:35;4.17;;;1.77;;
3193;SDS011;1608;50.860;13.466;2022-07-17T09:19:02;4.60;;;1.30;;
3193;SDS011;1608;50.860;13.466;2022-07-17T09:21:30;8.00;;;2.17;;
3193;SDS011;1608;50.860;13.466;2022-07-17T09:23:58;3.00;;;2.07;;
3193;SDS011;1608;50.860;13.466;2022-07-17T09:26:26;1.93;;;1.57;;
3193;SDS011;1608;50.860;13.466;2022-07-17T09:28:53;5.73;;;1.80;;
3193;SDS011;1608;50.860;13.466;2022-07-17T09:31:23;2.30;;;1.40;;
3193;SDS011;1608;50.860;13.466;2022-07-17T09:33:50;2.60;;;1.50;;
3193;SDS011;1608;50.860;13.466;2022-07-17T09:36:17;1.97;;;1.60;;
3193;SDS011;1608;50.860;13.466;2022-07-17T09:38:46;5.53;;;1.97;;
3193;SDS011;1608;50.860;13.466;2022-07-17T09:41:15;8.47;;;1.90;;
3193;SDS011;1608;50.860;13.466;2022-07-17T09:43:46;3.50;;;1.80;;
3193;SDS011;1608;50.860;13.466;2022-07-17T09:46:17;6.70;;;1.80;;
3193;SDS011;1608;50.860;13.466;2022-07-17T09:48:45;3.90;;;1.60;;
3193;SDS011;1608;50.860;13.466;2022-07-17T09:51:17;3.77;;;1.60;;
3193;SDS011;1608;50.860;13.466;2022-07-17T09:53:47;2.40;;;1.63;;
3193;SDS011;1608;50.860;13.466;2022-07-17T09:56:15;4.47;;;2.13;;
3193;SDS011;1608;50.860;13.466;2022-07-17T09:58:44;4.10;;;2.50;;
3193;SDS011;1608;50.860;13.466;2022-07-17T10:01:13;2.90;;;1.90;;
3193;SDS011;1608;50.860;13.466;2022-07-17T10:03:41;2.63;;;1.70;;
3193;SDS011;1608;50.860;13.466;2022-07-17T10:06:08;5.53;;;1.97;;
3193;SDS011;1608;50.860;13.466;2022-07-17T10:08:35;3.00;;;1.50;;
3193;SDS011;1608;50.860;13.466;2022-07-17T10:11:03;3.23;;;1.87;;
3193;SDS011;1608;50.860;13.466;2022-07-17T10:13:31;3.50;;;1.90;;
3193;SDS011;1608;50.860;13.466;2022-07-17T10:15:58;3.57;;;1.80;;
3193;SDS011;1608;50.860;13.466;2022-07-17T10:18:33;5.23;;;1.60;;
3193;SDS011;1608;50.860;13.466;2022-07-17T10:21:05;3.07;;;1.30;;
3193;SDS011;1608;50.860;13.466;2022-07-17T10:23:36;3.80;;;1.87;;
3193;SDS011;1608;50.860;13.466;2022-07-17T10:26:04;3.80;;;2.00;;
3193;SDS011;1608;50.860;13.466;2022-07-17T10:28:38;4.60;;;2.73;;
3193;SDS011;1608;50.860;13.466;2022-07-17T10:31:06;4.10;;;2.13;;
3193;SDS011;1608;50.860;13.466;2022-07-17T10:33:33;2.90;;;1.60;;
3193;SDS011;1608;50.860;13.466;2022-07-17T10:36:00;2.10;;;1.60;;
3193;SDS011;1608;50.860;13.466;2022-07-17T10:38:27;3.87;;;1.83;;
3193;SDS011;1608;50.860;13.466;2022-07-17T10:40:59;3.73;;;1.77;;
3193;SDS011;1608;50.860;13.466;2022-07-17T10:43:28;4.30;;;1.80;;
3193;SDS011;1608;50.860;13.466;2022-07-17T10:46:08;1.90;;;1.67;;
3193;SDS011;1608;50.860;13.466;2022-07-17T10:48:35;2.93;;;2.03;;
3193;SDS011;1608;50.860;13.466;2022-07-17T10:51:05;4.13;;;2.10;;
3193;SDS011;1608;50.860;13.466;2022-07-17T10:53:33;2.03;;;1.67;;
3193;SDS011;1608;50.860;13.466;2022-07-17T10:56:01;3.50;;;2.13;;
3193;SDS011;1608;50.860;13.466;2022-07-17T10:58:32;2.17;;;1.87;;
3193;SDS011;1608;50.860;13.466;2022-07-17T11:01:00;2.70;;;1.70;;
3193;SDS011;1608;50.860;13.466;2022-07-17T11:03:38;2.13;;;1.70;;
3193;SDS011;1608;50.860;13.466;2022-07-17T11:06:07;5.37;;;1.93;;
3193;SDS011;1608;50.860;13.466;2022-07-17T11:08:35;4.30;;;2.20;;
3193;SDS011;1608;50.860;13.466;2022-07-17T11:11:02;4.30;;;1.93;;
3193;SDS011;1608;50.860;13.466;2022-07-17T11:13:29;4.27;;;2.40;;
3193;SDS011;1608;50.860;13.466;2022-07-17T11:15:57;3.60;;;1.80;;
3193;SDS011;1608;50.860;13.466;2022-07-17T11:18:24;4.10;;;1.90;;
3193;SDS011;1608;50.860;13.466;2022-07-17T11:20:52;2.63;;;1.33;;
3193;SDS011;1608;50.860;13.466;2022-07-17T11:23:20;4.17;;;1.43;;
3193;SDS011;1608;50.860;13.466;2022-07-17T11:25:59;2.60;;;1.80;;
3193;SDS011;1608;50.860;13.466;2022-07-17T11:28:28;3.10;;;2.50;;
3193;SDS011;1608;50.860;13.466;2022-07-17T11:30:55;2.73;;;1.80;;
3193;SDS011;1608;50.860;13.466;2022-07-17T11:33:23;4.27;;;2.03;;
3193;SDS011;1608;50.860;13.466;2022-07-17T11:35:50;2.60;;;1.60;;
3193;SDS011;1608;50.860;13.466;2022-07-17T11:38:23;4.37;;;2.03;;
3193;SDS011;1608;50.860;13.466;2022-07-17T11:40:50;2.53;;;1.83;;
3193;SDS011;1608;50.860;13.466;2022-07-17T11:43:18;3.10;;;1.70;;
3193;SDS011;1608;50.860;13.466;2022-07-17T11:45:45;3.07;;;1.87;;
3193;SDS011;1608;50.860;13.466;2022-07-17T11:48:14;1.37;;;1.27;;
3193;SDS011;1608;50.860;13.466;2022-07-17T11:50:41;3.20;;;1.60;;
3193;SDS011;1608;50.860;13.466;2022-07-17T11:53:18;2.57;;;1.67;;
3193;SDS011;1608;50.860;13.466;2022-07-17T11:55:45;3.77;;;1.70;;
3193;SDS011;1608;50.860;13.466;2022-07-17T11:58:12;9.43;;;2.10;;
3193;SDS011;1608;50.860;13.466;2022-07-17T12:00:39;5.53;;;1.60;;
3193;SDS011;1608;50.860;13.466;2022-07-17T12:03:06;3.00;;;1.30;;
3193;SDS011;1608;50.860;13.466;2022-07-17T12:05:35;2.87;;;1.13;;
3193;SDS011;1608;50.860;13.466;2022-07-17T12:08:02;6.77;;;1.73;;
3193;SDS011;1608;50.860;13.466;2022-07-17T12:10:33;3.70;;;1.77;;
3193;SDS011;1608;50.860;13.466;2022-07-17T12:13:01;4.20;;;1.57;;
3193;SDS011;1608;50.860;13.466;2022-07-17T12:15:36;3.10;;;1.53;;
3193;SDS011;1608;50.860;13.466;2022-07-17T12:18:03;3.70;;;1.80;;
3193;SDS011;1608;50.860;13.466;2022-07-17T12:20:42;4.10;;;1.97;;
3193;SDS011;1608;50.860;13.466;2022-07-17T12:23:25;4.40;;;1.73;;
3193;SDS011;1608;50.860;13.466;2022-07-17T12:26:02;2.90;;;1.30;;
3193;SDS011;1608;50.860;13.466;2022-07-17T12:28:29;4.00;;;1.80;;
3193;SDS011;1608;50.860;13.466;2022-07-17T12:30:56;1.70;;;1.43;;
3193;SDS011;1608;50.860;13.466;2022-07-17T12:33:23;5.10;;;3.03;;
3193;SDS011;1608;50.860;13.466;2022-07-17T12:35:51;3.10;;;1.23;;
3193;SDS011;1608;50.860;13.466;2022-07-17T12:38:18;5.03;;;2.00;;
3193;SDS011;1608;50.860;13.466;2022-07-17T12:40:45;4.13;;;1.63;;
3193;SDS011;1608;50.860;13.466;2022-07-17T12:43:12;3.73;;;1.60;;
3193;SDS011;1608;50.860;13.466;2022-07-17T12:45:38;2.70;;;1.47;;
3193;SDS011;1608;50.860;13.466;2022-07-17T12:48:05;3.37;;;1.70;;
3193;SDS011;1608;50.860;13.466;2022-07-17T12:50:32;2.90;;;1.50;;
3193;SDS011;1608;50.860;13.466;2022-07-17T12:53:01;1.50;;;1.30;;
3193;SDS011;1608;50.860;13.466;2022-07-17T12:55:27;6.53;;;1.50;;
3193;SDS011;1608;50.860;13.466;2022-07-17T12:57:55;2.20;;;1.40;;
3193;SDS011;1608;50.860;13.466;2022-07-17T13:00:22;2.97;;;1.27;;
3193;SDS011;1608;50.860;13.466;2022-07-17T13:02:48;3.50;;;1.50;;
3193;SDS011;1608;50.860;13.466;2022-07-17T13:05:16;6.33;;;1.63;;
3193;SDS011;1608;50.860;13.466;2022-07-17T13:07:43;2.13;;;1.40;;
3193;SDS011;1608;50.860;13.466;2022-07-17T13:10:11;4.37;;;1.43;;
3193;SDS011;1608;50.860;13.466;2022-07-17T13:12:38;1.63;;;1.10;;
3193;SDS011;1608;50.860;13.466;2022-07-17T13:15:05;4.80;;;1.73;;
3193;SDS011;1608;50.860;13.466;2022-07-17T13:17:33;4.40;;;1.47;;
3193;SDS011;1608;50.860;13.466;2022-07-17T13:20:02;5.00;;;1.43;;
3193;SDS011;1608;50.860;13.466;2022-07-17T13:22:30;3.37;;;1.30;;
3193;SDS011;1608;50.860;13.466;2022-07-17T13:24:57;2.53;;;1.67;;
3193;SDS011;1608;50.860;13.466;2022-07-17T13:27:25;1.73;;;1.13;;
3193;SDS011;1608;50.860;13.466;2022-07-17T13:29:52;2.30;;;1.43;;
3193;SDS011;1608;50.860;13.466;2022-07-17T13:32:19;2.63;;;1.50;;
3193;SDS011;1608;50.860;13.466;2022-07-17T13:34:46;2.27;;;1.43;;
3193;SDS011;1608;50.860;13.466;2022-07-17T13:37:14;2.77;;;1.40;;
3193;SDS011;1608;50.860;13.466;2022-07-17T13:39:40;4.20;;;1.40;;
3193;SDS011;1608;50.860;13.466;2022-07-17T13:42:07;3.27;;;1.40;;
3193;SDS011;1608;50.860;13.466;2022-07-17T13:44:35;3.20;;;1.80;;
3193;SDS011;1608;50.860;13.466;2022-07-17T13:47:02;3.20;;;1.57;;
3193;SDS011;1608;50.860;13.466;2022-07-17T13:49:29;4.40;;;1.53;;
3193;SDS011;1608;50.860;13.466;2022-07-17T13:51:55;3.50;;;1.43;;
3193;SDS011;1608;50.860;13.466;2022-07-17T13:54:22;3.67;;;1.40;;
3193;SDS011;1608;50.860;13.466;2022-07-17T13:56:49;3.73;;;1.23;;
3193;SDS011;1608;50.860;13.466;2022-07-17T13:59:17;2.90;;;1.47;;
3193;SDS011;1608;50.860;13.466;2022-07-17T14:01:46;4.13;;;1.70;;
3193;SDS011;1608;50.860;13.466;2022-07-17T14:04:12;4.13;;;1.40;;
3193;SDS011;1608;50.860;13.466;2022-07-17T14:06:39;12.63;;;2.60;;
3193;SDS011;1608;50.860;13.466;2022-07-17T14:09:06;4.70;;;1.37;;
3193;SDS011;1608;50.860;13.466;2022-07-17T14:11:33;2.43;;;0.90;;
3193;SDS011;1608;50.860;13.466;2022-07-17T14:14:01;3.83;;;1.17;;
3193;SDS011;1608;50.860;13.466;2022-07-17T14:16:28;3.47;;;1.27;;
3193;SDS011;1608;50.860;13.466;2022-07-17T14:18:57;1.57;;;1.20;;
3193;SDS011;1608;50.860;13.466;2022-07-17T14:21:27;2.10;;;1.50;;
3193;SDS011;1608;50.860;13.466;2022-07-17T14:23:54;1.93;;;1.10;;
3193;SDS011;1608;50.860;13.466;2022-07-17T14:26:21;1.83;;;1.60;;
3193;SDS011;1608;50.860;13.466;2022-07-17T14:28:48;3.37;;;1.23;;
3193;SDS011;1608;50.860;13.466;2022-07-17T14:31:15;4.93;;;1.33;;
3193;SDS011;1608;50.860;13.466;2022-07-17T14:33:42;3.30;;;1.47;;
3193;SDS011;1608;50.860;13.466;2022-07-17T14:36:10;1.87;;;1.20;;
3193;SDS011;1608;50.860;13.466;2022-07-17T14:38:37;2.57;;;1.53;;
3193;SDS011;1608;50.860;13.466;2022-07-17T14:41:04;2.60;;;1.40;;
3193;SDS011;1608;50.860;13.466;2022-07-17T14:43:31;3.83;;;1.40;;
3193;SDS011;1608;50.860;13.466;2022-07-17T14:45:58;1.90;;;0.80;;
3193;SDS011;1608;50.860;13.466;2022-07-17T14:48:25;2.37;;;1.20;;
3193;SDS011;1608;50.860;13.466;2022-07-17T14:50:52;2.73;;;1.10;;
3193;SDS011;1608;50.860;13.466;2022-07-17T14:53:20;1.30;;;1.07;;
3193;SDS011;1608;50.860;13.466;2022-07-17T14:55:47;3.63;;;1.67;;
3193;SDS011;1608;50.860;13.466;2022-07-17T14:58:14;2.10;;;1.50;;
3193;SDS011;1608;50.860;13.466;2022-07-17T15:00:41;3.43;;;1.13;;
3193;SDS011;1608;50.860;13.466;2022-07-17T15:03:08;1.60;;;1.20;;